createdAt,value
2022-08-09T00:06:17.782Z,99191.78
2022-08-09T00:08:42.667Z,99191.61
2022-08-09T00:16:04.729Z,99189.73
2022-08-09T00:28:22.789Z,99184.21
2022-08-09T00:44:28.532Z,99198.98
2022-08-09T00:47:04.416Z,99198.01
2022-08-09T00:51:25.700Z,99195.55
2022-08-09T01:20:09.598Z,99195.14
2022-08-09T01:27:35.422Z,99190.13
2022-08-09T01:47:45.858Z,99192.45
2022-08-09T01:51:03.909Z,99190.00
2022-08-09T01:54:09.742Z,99189.36
2022-08-09T02:19:46.441Z,99204.77
2022-08-09T02:22:46.487Z,99202.49
2022-08-09T02:30:17.464Z,99195.53
2022-08-09T02:45:54.083Z,99197.06
2022-08-09T02:48:48.302Z,99197.79
2022-08-09T03:05:55.572Z,99186.35
2022-08-09T03:18:10.712Z,99191.91
2022-08-09T03:21:28.118Z,99193.83
2022-08-09T03:24:52.382Z,99195.67
2022-08-09T03:32:47.521Z,99192.23
2022-08-09T03:36:27.293Z,99195.84
2022-08-09T03:44:08.037Z,99199.85
2022-08-09T04:09:15.821Z,99201.08
2022-08-09T04:13:11.535Z,99211.12
2022-08-09T04:33:53.176Z,99212.02
2022-08-09T04:43:19.094Z,99220.38
2022-08-09T04:46:59.486Z,99218.52
2022-08-09T04:59:17.750Z,99229.41
2022-08-09T05:02:48.619Z,99227.73
2022-08-09T05:14:26.903Z,99231.91
2022-08-09T05:18:55.272Z,99234.42
2022-08-09T05:29:35.406Z,99239.86
2022-08-09T05:36:57.117Z,99242.52
2022-08-09T05:39:58.695Z,99239.19
2022-08-09T05:42:30.076Z,99241.81
2022-08-09T05:44:59.988Z,99236.06
2022-08-09T05:47:33.213Z,99235.91
2022-08-09T05:50:26.882Z,99229.92
2022-08-09T05:52:53.741Z,99238.67
2022-08-09T05:55:23.997Z,99236.73
2022-08-09T05:57:57.456Z,99236.14
2022-08-09T06:00:30.555Z,99234.30
2022-08-09T06:03:03.842Z,99234.52
2022-08-09T06:05:49.864Z,99235.13
2022-08-09T06:08:26.625Z,99234.75
2022-08-09T06:10:58.029Z,99241.23
2022-08-09T06:13:33.579Z,99238.17
2022-08-09T06:16:04.708Z,99237.52
2022-08-09T06:18:34.818Z,99234.60
2022-08-09T06:21:05.858Z,99237.09
2022-08-09T06:23:59.022Z,99236.77
2022-08-09T06:26:28.538Z,99234.13
2022-08-09T06:28:59.287Z,99230.02
2022-08-09T06:31:39.330Z,99227.96
2022-08-09T06:34:09.596Z,99231.90
2022-08-09T06:36:43.855Z,99229.98
2022-08-09T06:39:14.690Z,99231.04
2022-08-09T06:42:32.958Z,99233.29
2022-08-09T06:45:09.230Z,99233.84
2022-08-09T06:48:00.613Z,99240.44
2022-08-09T06:50:31.218Z,99244.08
2022-08-09T06:53:06.351Z,99246.42
2022-08-09T06:55:34.175Z,99245.56
2022-08-09T06:58:04.749Z,99248.47
2022-08-09T07:00:56.359Z,99245.83
2022-08-09T07:03:28.543Z,99247.06
2022-08-09T07:06:03.830Z,99245.56
2022-08-09T07:08:37.107Z,99250.32
2022-08-09T07:16:36.311Z,99250.10
2022-08-09T07:18:43.942Z,99248.21
2022-08-09T07:21:20.008Z,99249.79
2022-08-09T07:23:58.293Z,99248.52
2022-08-09T07:26:34.272Z,99242.56
2022-08-09T07:29:12.081Z,99247.69
2022-08-09T07:31:45.393Z,99250.58
2022-08-09T07:34:20.584Z,99252.87
2022-08-09T07:36:50.520Z,99254.86
2022-08-09T07:39:41.163Z,99253.18
2022-08-09T07:42:11.123Z,99255.20
2022-08-09T07:44:51.221Z,99254.90
2022-08-09T07:47:23.113Z,99254.94
2022-08-09T07:50:08.361Z,99252.66
2022-08-09T07:52:40.764Z,99248.76
2022-08-09T07:55:12.098Z,99244.21
2022-08-09T07:57:46.689Z,99248.55
2022-08-09T08:00:20.187Z,99241.54
2022-08-09T08:02:50.056Z,99243.39
2022-08-09T08:05:20.845Z,99252.84
2022-08-09T08:08:43.003Z,99244.92
2022-08-09T08:10:39.543Z,99238.41
2022-08-09T08:13:23.592Z,99238.79
2022-08-09T08:15:52.907Z,99237.80
2022-08-09T08:18:22.357Z,99237.44
2022-08-09T08:20:51.031Z,99238.41
2022-08-09T08:23:20.305Z,99236.34
2022-08-09T08:26:06.490Z,99240.18
2022-08-09T08:28:37.382Z,99236.98
2022-08-09T08:31:14.712Z,99227.04
2022-08-09T08:33:52.923Z,99231.61
2022-08-09T08:36:28.811Z,99233.16
2022-08-09T08:39:00.519Z,99225.75
2022-08-09T08:41:50.800Z,99221.73
2022-08-09T08:44:27.269Z,99224.38
2022-08-09T08:47:03.154Z,99228.95
2022-08-09T08:49:48.290Z,99223.26
2022-08-09T08:52:58.268Z,99221.77
2022-08-09T08:55:11.023Z,99217.75
2022-08-09T08:57:43.272Z,99218.30
2022-08-09T09:00:30.103Z,99207.09
2022-08-09T09:03:08.226Z,99205.79
2022-08-09T09:06:01.173Z,99200.11
2022-08-09T09:08:40.164Z,99209.95
2022-08-09T09:11:13.844Z,99214.20
2022-08-09T09:13:56.234Z,99208.96
2022-08-09T09:16:30.458Z,99211.39
2022-08-09T09:22:08.033Z,99215.26
2022-08-09T09:24:43.946Z,99210.09
2022-08-09T09:28:03.910Z,99211.99
2022-08-09T09:30:28.847Z,99219.73
2022-08-09T09:33:16.358Z,99220.45
2022-08-09T09:40:46.262Z,99208.80
2022-08-09T09:43:19.598Z,99204.63
2022-08-09T09:46:46.080Z,99195.80
2022-08-09T09:49:49.973Z,99196.09
2022-08-09T09:52:33.356Z,99198.90
2022-08-09T09:55:16.124Z,99201.21
2022-08-09T09:58:03.664Z,99197.86
2022-08-09T10:00:43.024Z,99194.27
2022-08-09T10:03:38.127Z,99197.02
2022-08-09T10:06:09.091Z,99190.56
2022-08-09T10:08:54.245Z,99187.22
2022-08-09T10:11:58.953Z,99184.80
2022-08-09T10:14:27.323Z,99176.56
2022-08-09T10:17:17.684Z,99166.29
2022-08-09T10:19:52.057Z,99164.33
2022-08-09T10:22:35.065Z,99168.83
2022-08-09T10:25:11.827Z,99156.27
2022-08-09T10:27:57.114Z,99167.05
2022-08-09T10:33:29.670Z,99166.89
2022-08-09T10:36:57.140Z,99163.11
2022-08-09T10:39:26.982Z,99164.61
2022-08-09T10:41:57.881Z,99158.55
2022-08-09T10:44:30.503Z,99165.05
2022-08-09T10:48:12.304Z,99161.77
2022-08-09T10:50:15.050Z,99160.75
2022-08-09T10:53:03.818Z,99164.69
2022-08-09T10:55:49.227Z,99162.46
2022-08-09T10:58:34.765Z,99157.89
2022-08-09T11:03:02.145Z,99158.79
2022-08-09T11:04:27.908Z,99159.62
2022-08-09T11:07:57.425Z,99155.24
2022-08-09T11:11:00.832Z,99157.98
2022-08-09T11:13:50.587Z,99157.05
2022-08-09T11:22:21.684Z,99160.33
2022-08-09T11:25:08.451Z,99157.24
2022-08-09T11:28:05.583Z,99156.98
2022-08-09T11:30:35.607Z,99154.73
2022-08-09T11:33:10.772Z,99158.08
2022-08-09T11:35:49.603Z,99161.63
2022-08-09T11:38:32.484Z,99161.88
2022-08-09T11:41:38.002Z,99156.48
2022-08-09T11:44:09.534Z,99152.73
2022-08-09T11:47:00.257Z,99157.36
2022-08-09T11:50:52.464Z,99149.39
2022-08-09T11:53:57.701Z,99149.77
2022-08-09T11:56:42.852Z,99153.60
2022-08-09T11:59:30.213Z,99152.52
2022-08-09T12:02:34.529Z,99152.88
2022-08-09T12:04:57.932Z,99154.08
2022-08-09T12:07:41.503Z,99157.53
2022-08-09T12:10:32.040Z,99157.41
2022-08-09T12:13:03.855Z,99159.05
2022-08-09T12:15:52.328Z,99154.71
2022-08-09T12:18:30.080Z,99147.98
2022-08-09T12:21:03.132Z,99146.05
2022-08-09T12:23:58.697Z,99146.73
2022-08-09T12:26:26.154Z,99144.17
2022-08-09T12:29:14.071Z,99141.28
2022-08-09T12:32:01.551Z,99143.95
2022-08-09T12:34:36.763Z,99147.52
2022-08-09T12:37:21.393Z,99155.31
2022-08-09T12:40:05.665Z,99159.02
2022-08-09T12:42:35.799Z,99154.95
2022-08-09T12:45:32.155Z,99158.91
2022-08-09T12:47:57.329Z,99156.48
2022-08-09T12:50:26.768Z,99155.16
2022-08-09T12:57:36.166Z,99159.88
2022-08-09T13:00:28.764Z,99160.95
2022-08-09T13:07:10.872Z,99157.29
2022-08-09T13:09:40.828Z,99159.41
2022-08-09T13:12:10.081Z,99168.45
2022-08-09T13:14:44.356Z,99165.95
2022-08-09T13:17:43.894Z,99163.94
2022-08-09T13:20:18.879Z,99162.85
2022-08-09T13:23:01.846Z,99158.90
2022-08-09T13:25:53.069Z,99158.61
2022-08-09T13:28:35.976Z,99159.64
2022-08-09T13:32:13.252Z,99165.27
2022-08-09T13:34:01.857Z,99161.16
2022-08-09T13:36:42.632Z,99165.36
2022-08-09T13:41:20.855Z,99163.56
2022-08-09T13:42:04.444Z,99161.08
2022-08-09T13:44:33.887Z,99151.04
2022-08-09T13:47:53.745Z,99151.88
2022-08-09T13:50:31.077Z,99138.44
2022-08-09T13:53:00.565Z,99139.36
2022-08-09T13:55:30.510Z,99140.83
2022-08-09T13:57:59.575Z,99145.29
2022-08-09T14:00:29.736Z,99146.41
2022-08-09T14:03:03.731Z,99140.23
2022-08-09T14:05:59.584Z,99139.30
2022-08-09T14:08:33.150Z,99140.38
2022-08-09T14:11:04.014Z,99138.64
2022-08-09T14:14:22.320Z,99137.94
2022-08-09T14:16:34.571Z,99132.14
2022-08-09T14:19:03.580Z,99137.79
2022-08-09T14:21:32.509Z,99137.37
2022-08-09T14:24:10.479Z,99137.83
2022-08-09T14:26:51.821Z,99147.34
2022-08-09T14:29:25.654Z,99147.45
2022-08-09T14:32:11.195Z,99150.28
2022-08-09T14:34:45.099Z,99147.32
2022-08-09T14:37:14.215Z,99149.77
2022-08-09T14:39:48.579Z,99150.98
2022-08-09T14:42:32.120Z,99154.53
2022-08-09T14:46:38.859Z,99154.73
2022-08-09T14:47:57.166Z,99151.54
2022-08-09T14:50:31.098Z,99144.64
2022-08-09T14:53:01.225Z,99150.58
2022-08-09T14:55:32.577Z,99148.81
2022-08-09T14:58:04.636Z,99145.32
2022-08-09T15:00:36.335Z,99145.09
2022-08-09T15:03:07.392Z,99140.52
2022-08-09T15:05:38.551Z,99147.14
2022-08-09T15:08:10.283Z,99145.32
2022-08-09T15:10:39.994Z,99147.23
2022-08-09T15:13:12.743Z,99145.10
2022-08-09T15:15:43.702Z,99139.11
2022-08-09T15:18:14.175Z,99137.64
2022-08-09T15:21:54.616Z,99135.36
2022-08-09T15:24:06.098Z,99134.45
2022-08-09T15:26:30.831Z,99133.09
2022-08-09T15:29:04.253Z,99128.84
2022-08-09T15:31:41.559Z,99134.38
2022-08-09T15:34:32.503Z,99135.60
2022-08-09T15:37:04.335Z,99136.09
2022-08-09T15:39:43.857Z,99140.58
2022-08-09T15:42:22.259Z,99143.58
2022-08-09T15:44:51.548Z,99143.56
2022-08-09T15:47:21.646Z,99142.93
2022-08-09T15:50:00.750Z,99142.44
2022-08-09T15:52:34.622Z,99143.14
2022-08-09T15:55:03.117Z,99137.48
2022-08-09T15:57:36.013Z,99136.72
2022-08-09T16:00:24.193Z,99137.80
2022-08-09T16:02:56.792Z,99137.65
2022-08-09T16:05:47.226Z,99135.71
2022-08-09T16:08:30.543Z,99133.65
2022-08-09T16:11:02.100Z,99140.16
2022-08-09T16:14:02.581Z,99141.55
2022-08-09T16:16:28.133Z,99142.66
2022-08-09T16:18:57.340Z,99142.23
2022-08-09T16:21:26.510Z,99138.71
2022-08-09T16:24:02.221Z,99136.45
2022-08-09T16:26:34.760Z,99139.30
2022-08-09T16:29:11.244Z,99131.38
2022-08-09T16:32:19.086Z,99130.88
2022-08-09T16:34:44.829Z,99132.73
2022-08-09T16:37:55.229Z,99135.56
2022-08-09T16:40:13.706Z,99131.08
2022-08-09T16:42:44.807Z,99135.64
2022-08-09T16:45:19.314Z,99126.75
2022-08-09T16:48:38.090Z,99130.85
2022-08-09T16:50:39.345Z,99135.78
2022-08-09T16:53:09.016Z,99139.81
2022-08-09T16:55:59.068Z,99145.13
2022-08-09T16:58:27.124Z,99151.58
2022-08-09T17:00:56.482Z,99153.12
2022-08-09T17:03:28.182Z,99158.77
2022-08-09T17:06:07.160Z,99161.60
2022-08-09T17:09:01.396Z,99167.23
2022-08-09T17:11:41.923Z,99171.58
2022-08-09T17:14:25.995Z,99177.16
2022-08-09T17:17:01.494Z,99178.96
2022-08-09T17:19:47.211Z,99184.21
2022-08-09T17:22:29.069Z,99186.88
2022-08-09T17:25:05.100Z,99186.87
2022-08-09T17:27:49.070Z,99196.06
2022-08-09T17:30:19.728Z,99196.49
2022-08-09T17:32:52.926Z,99199.41
2022-08-09T17:35:22.365Z,99208.77
2022-08-09T17:38:11.495Z,99212.61
2022-08-09T17:40:47.334Z,99221.03
2022-08-09T17:43:34.102Z,99219.98
2022-08-09T17:46:09.161Z,99226.59
2022-08-09T17:48:51.833Z,99229.30
2022-08-09T17:51:22.110Z,99231.77
2022-08-09T17:53:54.797Z,99237.46
2022-08-09T17:56:27.251Z,99245.09
2022-08-09T17:58:59.486Z,99247.23
2022-08-09T18:02:03.220Z,99254.32
2022-08-09T18:04:21.580Z,99257.69
2022-08-09T18:06:55.268Z,99257.73
2022-08-09T18:09:40.036Z,99261.91
2022-08-09T18:12:19.452Z,99260.48
2022-08-09T18:14:54.875Z,99260.79
2022-08-09T18:17:27.517Z,99263.48
2022-08-09T18:20:54.577Z,99268.64
2022-08-09T18:23:07.118Z,99277.55
2022-08-09T18:25:52.944Z,99278.08
2022-08-09T18:30:42.606Z,99281.26
2022-08-09T18:31:24.980Z,99288.64
2022-08-09T18:34:08.660Z,99294.73
2022-08-09T18:36:38.215Z,99294.39
2022-08-09T18:39:07.438Z,99298.19
2022-08-09T18:41:52.512Z,99301.56
2022-08-09T18:44:25.767Z,99301.95
2022-08-09T18:47:05.139Z,99303.67
2022-08-09T18:49:46.726Z,99306.02
2022-08-09T18:52:24.711Z,99305.50
2022-08-09T18:54:54.460Z,99303.17
2022-08-09T18:57:43.001Z,99305.55
2022-08-09T19:00:20.302Z,99307.63
2022-08-09T19:02:54.083Z,99309.20
2022-08-09T19:05:41.538Z,99306.41
2022-08-09T19:08:19.693Z,99307.98
2022-08-09T19:10:54.127Z,99310.05
2022-08-09T19:13:38.579Z,99306.83
2022-08-09T19:16:20.849Z,99310.91
2022-08-09T19:18:52.244Z,99313.49
2022-08-09T19:21:21.709Z,99317.73
2022-08-09T19:24:37.355Z,99317.72
2022-08-09T19:27:11.531Z,99320.78
2022-08-09T19:30:21.394Z,99326.48
2022-08-09T19:32:37.437Z,99326.39
2022-08-09T19:35:09.247Z,99322.83
2022-08-09T19:37:54.592Z,99325.63
2022-08-09T19:40:34.048Z,99323.81
2022-08-09T19:43:10.199Z,99330.01
2022-08-09T19:45:45.391Z,99330.95
2022-08-09T19:48:16.629Z,99328.87
2022-08-09T19:51:07.919Z,99329.64
2022-08-09T19:53:37.225Z,99327.50
2022-08-09T19:56:15.445Z,99331.90
2022-08-09T19:58:56.382Z,99329.59
2022-08-09T20:01:52.196Z,99331.10
2022-08-09T20:04:36.662Z,99328.52
2022-08-09T20:07:12.204Z,99325.29
2022-08-09T20:09:50.029Z,99325.46
2022-08-09T20:12:30.297Z,99332.94
2022-08-09T20:16:31.664Z,99333.32
2022-08-09T20:18:02.272Z,99335.96
2022-08-09T20:20:35.357Z,99334.45
2022-08-09T20:23:07.896Z,99330.79
2022-08-09T20:25:52.584Z,99332.38
2022-08-09T20:28:34.179Z,99330.13
2022-08-09T20:31:04.905Z,99334.46
2022-08-09T20:33:41.367Z,99335.67
2022-08-09T20:36:14.168Z,99333.14
2022-08-09T20:39:28.283Z,99336.88
2022-08-09T20:41:35.720Z,99334.41
2022-08-09T20:44:10.408Z,99332.86
2022-08-09T20:46:44.690Z,99337.32
2022-08-09T20:49:15.988Z,99336.61
2022-08-09T20:51:50.553Z,99333.21
2022-08-09T20:54:21.346Z,99334.16
2022-08-09T20:56:54.130Z,99332.20
2022-08-09T20:59:49.939Z,99330.95
2022-08-09T21:02:17.723Z,99334.39
2022-08-09T21:05:52.521Z,99333.16
2022-08-09T21:07:40.251Z,99330.34
2022-08-09T21:10:13.127Z,99332.48
2022-08-09T21:15:33.995Z,99336.24
2022-08-09T21:18:23.475Z,99337.14
2022-08-09T21:20:54.840Z,99344.38
2022-08-09T21:23:36.096Z,99347.39
2022-08-09T21:26:15.683Z,99347.83
2022-08-09T21:28:56.082Z,99346.36
2022-08-09T21:31:48.592Z,99349.81
2022-08-09T21:34:21.026Z,99356.91
2022-08-09T21:36:57.958Z,99358.27
2022-08-09T21:39:28.383Z,99353.23
2022-08-09T21:42:11.902Z,99350.63
2022-08-09T21:44:41.102Z,99351.37
2022-08-09T21:47:17.500Z,99351.40
2022-08-09T21:49:51.153Z,99352.98
2022-08-09T21:52:21.045Z,99349.96
2022-08-09T21:54:57.112Z,99341.67
2022-08-09T21:57:38.250Z,99338.61
2022-08-09T22:00:31.830Z,99343.00
2022-08-09T22:03:04.756Z,99345.63
2022-08-09T22:05:36.727Z,99346.73
2022-08-09T22:08:14.776Z,99344.02
2022-08-09T22:11:00.992Z,99345.80
2022-08-09T22:13:36.721Z,99347.20
2022-08-09T22:16:08.625Z,99347.93
2022-08-09T22:18:53.022Z,99345.09
2022-08-09T22:21:27.656Z,99346.98
2022-08-09T22:24:17.075Z,99345.95
2022-08-09T22:26:51.208Z,99349.15
2022-08-09T22:29:28.429Z,99347.46
2022-08-09T22:32:00.425Z,99348.30
2022-08-09T22:34:30.302Z,99356.45
2022-08-09T22:36:59.789Z,99354.79
2022-08-09T22:39:55.707Z,99355.73
2022-08-09T22:42:20.965Z,99345.84
2022-08-09T22:48:04.885Z,99347.70
2022-08-09T22:48:15.226Z,99345.48
2022-08-09T22:50:31.576Z,99346.67
2022-08-09T22:53:03.779Z,99345.79
2022-08-09T22:56:06.411Z,99346.18
2022-08-09T22:58:32.381Z,99348.73
2022-08-09T23:01:05.628Z,99350.10
2022-08-09T23:04:03.907Z,99350.40
2022-08-09T23:06:35.142Z,99348.17
2022-08-09T23:09:07.923Z,99351.02
2022-08-09T23:11:36.790Z,99353.15
2022-08-09T23:14:17.255Z,99352.03
2022-08-09T23:16:46.456Z,99351.15
2022-08-09T23:19:15.298Z,99352.48
2022-08-09T23:21:43.992Z,99351.95
2022-08-09T23:24:13.418Z,99345.91
2022-08-09T23:26:42.228Z,99349.66
2022-08-09T23:29:13.047Z,99347.95
2022-08-09T23:31:42.811Z,99349.29
2022-08-09T23:34:11.928Z,99351.86
2022-08-09T23:36:40.867Z,99351.93
2022-08-09T23:39:09.644Z,99349.59
2022-08-09T23:41:38.692Z,99349.05
2022-08-09T23:44:07.545Z,99352.33
2022-08-09T23:46:36.369Z,99348.09
2022-08-09T23:49:05.116Z,99348.96
2022-08-09T23:51:35.271Z,99345.57
2022-08-09T23:54:04.332Z,99344.59
2022-08-09T23:56:52.243Z,99343.48
2022-08-09T23:59:25.104Z,99346.91
